Aktualne dane pomiarowe

Uwaga, wersja testowa! Automatyczne pobieranie danych za pomocą narzędzi lub skryptów to umożliwiających jest zabronione.

Dane meteo z obszaru Polski uzyskane na podstawie depesz SYNOP pobieranych co godzinę z NWS. Najedź myszką na symbol przedstawiony w tabeli, aby uzyskać informacje co do jego znaczenia. Prosimy pamiętać, że to testowa wersja strony, która jeszcze nie jest ukończona. Stworzono również jest krótki FAQ dotyczący korzystania z tej podstrony Anomalie temperatury w chwili obecnej odniesione są do okresu referencyjnego 1951-2016. Okres ten będzie później zmieniony na 1981-2010. Kliknij ikonę aby pobrać plik CSV. Kliknij ikonę aby wygenerować mapę synoptyczną dla danego terminu.

Wybierz Datę:    

        

Kozienice (12488)

Dane terminowe dla wybranej stacji. Kliknij datę, aby otrzymać dane z tego terminu dla wszystkich stacji.

TemperaturaZachmurzenieWiatrCiśnienieOpadyPogoda
 Data t td wb tx tn tg rh  Nt Nl Cl Cm Ch ws wd g1 g2 wx mslp ppp ch 24h 12h t ww ww w1 w2  
2019-08-08 23:00:00 16.9 12.0 13.7--- 7335.0wxwxwx2wx--21012.2 997.2 0.7----22----
2019-08-08 22:00:00 16.0 12.2 13.5--- 7830.0wxwxwx1wx--11012.2 997.2 0.7----22----
2019-08-08 21:00:00 15.2 11.6 12.8--- 7945.0wxwxwxwxwx1wx--11011.9 996.8 0.6----22----
2019-08-08 20:00:00 15.6 11.8 13.1--- 7845.0wxwxwxwx1wx---1011.6 996.5 0.6---------
2019-08-08 19:00:00 17.3 11.6 13.7--- 6935.0wx-wxwx1wx--11011.5 996.5 0.7---------
2019-08-08 18:00:00 21.6 11.3 15.3 26.0 18.3- 5250.0wxwxwxwxwx0--1101010.9 996.2 0.3- 0.012------
2019-08-08 17:00:00 24.8 11.7 16.9--- 4450.0wxwxwxwx2wx--21010.5 995.9 0.2---------
2019-08-08 16:00:00 25.1 10.9 16.6--- 4145.0wxwxwxwxwx4wx9--1010.4 995.8 0.4---------
2019-08-08 15:00:00 25.5 10.1 16.4--- 3840.0wxwxwxwx5wx---1010.4 995.9 0.7---------
2019-08-08 14:00:00 25.3 11.1 16.8--- 4135.0wxwxwxwx5wx101151010.3 995.7 0.8---------
2019-08-08 13:00:00 25.3 11.5 17.0--- 4230.0wxwxwx5wx-1151009.9 995.4 0.9---------
2019-08-08 12:00:00 24.7 12.3 17.1--- 4630.0wxwxwx5wx101351009.8 995.2 1.3- 0.06------
2019-08-08 11:00:00 24.3 12.9 17.2--- 4922.0wxwxwx7wx121271009.5 994.9 1.4---------
2019-08-08 10:00:00 23.0 13.5 17.0--- 5540.0wxwxwx5wx101351009.1 994.5 1.4---------
2019-08-08 09:00:00 22.3 14.4 17.2--- 6130.0wxwxwx6wx111161008.6 993.9 1.8---------
2019-08-08 08:00:00 20.9 16.1 17.6--- 7440.0wxwxwx5wx-1151008.2 993.5 2.5---------
2019-08-08 07:00:00 19.5 16.9 17.7--- 8535.0wxwxwxwx4wx--41007.9 993.1 2.6---------
2019-08-08 06:00:00 18.3 16.8 17.2 23.6 18.3 17 9150.0wxwxwx3wx--31006.9 992.1 1.8 3.1 3.012wx-w1- 6.0
2019-08-08 05:00:00 18.4 17.4 17.7--- 9421.0wxwxwx3wx---1005.8 991.0 0.5---wx-w1w2--
2019-08-08 04:00:00 18.5 17.7 17.9--- 955.0wxwxwxwx2wx---1005.3 990.5 -0.3---wx-w1w2--
2019-08-08 03:00:00 18.5 17.8 18.0--- 9612.0wxwxwxwx2wx--21005.1 990.3 -0.4---wx-w1w2--
2019-08-08 02:00:00 18.8 18.1 18.3--- 9612.0wxwxwxwx2wx--21005.3 990.5 -0.8---wx-w1w2--
2019-08-08 01:00:00 18.7 18.0 18.2--- 965.0wxwxwxwx1wx--11005.6 990.8 0.0---wx-w1w2--
2019-08-08 00:00:00 19.4 18.2 18.5--- 9314.0wxwxwxwx2wx--21005.5 990.7 -0.3- 1.06wx---
2019-08-07 23:00:00 18.9 18.2 18.4--- 964.4wxwxwx1wx--11006.1 991.3 0.0---wx-w1--
2019-08-07 22:00:00 18.7 17.7 18.0--- 9410.0wx-wxwx1wx--11005.6 990.8 -1.0----22----
2019-08-07 21:00:00 18.9 17.4 17.8--- 9116.0wx-wxwx1wx--11005.8 991.0 -0.9---------
2019-08-07 20:00:00 20.9 17.5 18.5--- 8140.0wx-wxwx1wx---1006.0 991.3 -0.8---------
2019-08-07 19:00:00 22.2 16.9 18.6--- 7250.0wxwxwxwxwx2wx---1006.4 991.8 -0.9---------
2019-08-07 18:00:00 23.6 16.6 18.9 27.3 21.3- 6550.0wxwxwxwxwx2wx--21006.5 991.9 -1.0- 0.012------
2019-08-07 17:00:00 25.4 16.0 19.3--- 5640.0wxwxwxwxwx2wx--21006.6 992.1 -1.1---------
2019-08-07 16:00:00 25.8 15.5 19.2--- 5350.0wxwxwxwxwx2wx--21007.2 992.7 -0.6---------
2019-08-07 15:00:00 25.9 14.7 18.8--- 5050.0wxwxwxwx3wx--31007.4 992.9 -0.8---------
2019-08-07 14:00:00 26.2 15.0 19.1--- 5045.0wxwxwxwxwx3wx---1007.7 993.2 -0.8---------
2019-08-07 13:00:00 26.4 14.5 18.9--- 4845.0wxwxwxwx4wx--41007.8 993.3 -1.0---------
2019-08-07 12:00:00 27.0 14.7 19.2--- 4730.0wxwxwxwxwx3wx--31008.1 993.7 -0.7- 0.06------
2019-08-07 11:00:00 26.2 15.9 19.5--- 5340.0wxwxwxwx2wx--21008.5 994.0 0.0---------
2019-08-07 10:00:00 25.8 16.1 19.5--- 5535.0wxwxwxwxwx3wx--31008.8 994.3 0.4---------
2019-08-07 09:00:00 25.0 16.2 19.2--- 5840.0wx-wxwx4wx---1008.9 994.4 0.3---------
2019-08-07 08:00:00 24.2 16.5 19.1--- 6240.0wx-wxwx2wx--21008.6 994.0 -0.3---------
2019-08-07 07:00:00 22.9 16.4 18.6--- 6745.0wx-wxwx3wx--31008.5 993.9 -0.4---------
2019-08-07 06:00:00 21.3 16.9 18.3 24.6 17.2 16 7635.0wxwxwxwxwx2wx--21008.8 994.1 0.4 0.2 0.212----- 9.4
2019-08-07 05:00:00 19.8 16.8 17.7--- 8330.0wxwxwxwxwx1wx--11009.1 994.3 0.3---------
2019-08-07 04:00:00 17.7 16.6 16.9--- 9314.0wxwxwxwx2wx---1009.2 994.3 0.1---------
2019-08-07 03:00:00 17.9 16.1 16.6--- 8911.0wxwxwxwx1wx--11008.6 993.7 0.0---------
2019-08-07 02:00:00 20.1 15.7 17.1--- 7635.0wxwxwx1wx--11008.8 994.0 -0.2---------
2019-08-07 01:00:00 21.2 15.5 17.4--- 7050.0wxwxwx3wx--31008.9 994.2 0.2---------
2019-08-07 00:00:00 21.5 14.6 17.0--- 6550.0wxwxwx3wx--31008.4 993.7 -0.4- 0.26wx---
1.7 ms

 

Print Friendly, PDF & Email